createdAt,value
2019-02-10T00:00:24.814Z,46.43
2019-02-10T00:02:54.545Z,47.93
2019-02-10T00:05:35.755Z,45.13
2019-02-10T00:08:03.910Z,47.90
2019-02-10T00:10:38.810Z,45.47
2019-02-10T00:13:37.997Z,41.97
2019-02-10T00:16:19.846Z,51.53
2019-02-10T00:18:49.030Z,44.83
2019-02-10T00:21:17.228Z,44.40
2019-02-10T00:23:47.678Z,47.00
2019-02-10T00:26:21.948Z,45.10
2019-02-10T00:28:49.758Z,43.10
2019-02-10T00:31:20.781Z,45.50
2019-02-10T00:33:51.572Z,44.50
2019-02-10T00:50:41.873Z,43.73
2019-02-10T00:53:33.225Z,44.27
2019-02-10T00:59:38.206Z,47.63
2019-02-10T01:02:07.178Z,45.87
2019-02-10T01:04:36.026Z,43.27
2019-02-10T01:07:06.983Z,41.23
2019-02-10T01:09:44.321Z,39.60
2019-02-10T01:12:19.425Z,44.20
2019-02-10T01:17:47.110Z,42.87
2019-02-10T01:20:21.350Z,41.20
2019-02-10T01:23:28.058Z,43.40
2019-02-10T01:26:37.968Z,43.63
2019-02-10T01:33:11.952Z,41.90
2019-02-10T01:35:40.004Z,45.03
2019-02-10T01:38:14.511Z,43.10
2019-02-10T01:41:29.257Z,42.27
2019-02-10T01:47:01.163Z,39.00
2019-02-10T01:56:48.643Z,42.37
2019-02-10T02:00:06.944Z,42.53
2019-02-10T02:06:10.693Z,42.27
2019-02-10T02:11:44.744Z,38.40
2019-02-10T02:14:13.079Z,38.50
2019-02-10T02:17:14.632Z,39.30
2019-02-10T02:19:56.708Z,39.43
2019-02-10T02:22:37.880Z,46.63
2019-02-10T02:25:21.589Z,42.97
2019-02-10T02:28:50.546Z,42.53
2019-02-10T02:31:18.480Z,41.13
2019-02-10T02:34:19.595Z,42.80
2019-02-10T02:36:50.692Z,43.87
2019-02-10T02:39:57.142Z,44.47
2019-02-10T02:43:31.270Z,41.37
2019-02-10T02:46:39.673Z,43.03
2019-02-10T02:49:27.560Z,39.60
2019-02-10T02:52:07.891Z,43.37
2019-02-10T02:54:40.453Z,39.43
2019-02-10T02:58:09.762Z,40.97
2019-02-10T03:00:43.410Z,38.70
2019-02-10T03:03:21.870Z,39.80
2019-02-10T03:06:15.111Z,38.93
2019-02-10T03:08:44.166Z,39.57
2019-02-10T03:11:12.541Z,39.80
2019-02-10T03:14:26.969Z,40.30
2019-02-10T03:16:56.673Z,39.50
2019-02-10T03:19:28.488Z,41.33
2019-02-10T03:32:48.806Z,35.40
2019-02-10T03:35:17.029Z,40.27
2019-02-10T03:38:08.665Z,37.33
2019-02-10T03:44:03.152Z,36.80
2019-02-10T03:46:33.948Z,34.60
2019-02-10T03:49:02.660Z,32.40
2019-02-10T03:51:50.383Z,35.27
2019-02-10T03:55:02.924Z,36.03
2019-02-10T03:58:17.397Z,33.97
2019-02-10T04:00:43.696Z,35.00
2019-02-10T04:03:18.100Z,34.13
2019-02-10T04:05:49.762Z,34.93
2019-02-10T04:08:21.660Z,36.53
2019-02-10T04:11:39.698Z,36.07
2019-02-10T04:14:15.620Z,33.80
2019-02-10T04:16:45.858Z,33.77
2019-02-10T04:19:20.727Z,36.33
2019-02-10T04:21:55.750Z,31.60
2019-02-10T04:25:04.685Z,34.00
2019-02-10T04:27:34.482Z,33.53
2019-02-10T04:30:23.658Z,30.33
2019-02-10T04:33:21.103Z,31.67
2019-02-10T04:36:14.991Z,32.03
2019-02-10T04:38:50.837Z,31.37
2019-02-10T04:41:19.795Z,33.00
2019-02-10T04:44:08.713Z,31.37
2019-02-10T04:46:49.741Z,31.27
2019-02-10T04:49:26.469Z,31.95
2019-02-10T05:06:11.761Z,32.13
2019-02-10T05:08:57.428Z,35.60
2019-02-10T05:18:01.458Z,29.73
2019-02-10T05:20:49.670Z,31.53
2019-02-10T05:23:51.131Z,33.40
2019-02-10T05:26:18.280Z,27.60
2019-02-10T05:28:57.474Z,32.17
2019-02-10T05:31:29.993Z,30.93
2019-02-10T05:33:58.249Z,31.43
2019-02-10T05:36:44.878Z,29.00
2019-02-10T05:39:46.576Z,34.93
2019-02-10T05:42:16.306Z,36.03
2019-02-10T05:45:19.866Z,35.80
2019-02-10T05:47:48.382Z,33.47
2019-02-10T05:50:17.158Z,30.00
2019-02-10T05:52:45.303Z,33.57
2019-02-10T05:56:04.504Z,34.27
2019-02-10T05:59:15.131Z,34.57
2019-02-10T06:02:30.532Z,31.63
2019-02-10T06:05:17.949Z,35.67
2019-02-10T06:07:48.116Z,36.93
2019-02-10T06:11:15.999Z,32.93
2019-02-10T06:13:44.677Z,37.53
2019-02-10T06:16:13.158Z,30.97
2019-02-10T06:18:50.193Z,34.67
2019-02-10T06:22:06.320Z,32.67
2019-02-10T06:24:45.734Z,31.70
2019-02-10T06:27:17.301Z,30.87
2019-02-10T06:29:45.633Z,31.20
2019-02-10T06:32:13.696Z,33.07
2019-02-10T06:34:45.064Z,31.07
2019-02-10T06:37:13.310Z,33.00
2019-02-10T06:39:43.564Z,37.53
2019-02-10T06:42:14.618Z,34.10
2019-02-10T06:44:43.294Z,31.87
2019-02-10T06:47:50.520Z,31.17
2019-02-10T06:50:20.942Z,31.17
2019-02-10T06:53:21.045Z,32.87
2019-02-10T06:55:51.670Z,33.87
2019-02-10T06:58:20.024Z,30.87
2019-02-10T07:01:13.283Z,29.67
2019-02-10T07:04:04.291Z,29.80
2019-02-10T07:06:32.297Z,33.33
2019-02-10T07:09:10.566Z,33.43
2019-02-10T07:11:41.835Z,29.60
2019-02-10T07:15:16.758Z,33.63
2019-02-10T07:18:34.292Z,28.43
2019-02-10T07:21:04.943Z,30.00
2019-02-10T07:24:02.430Z,30.63
2019-02-10T07:27:28.514Z,29.27
2019-02-10T07:30:49.880Z,30.37
2019-02-10T07:33:53.657Z,29.83
2019-02-10T07:36:33.798Z,31.60
2019-02-10T07:39:57.726Z,31.10
2019-02-10T07:43:13.268Z,27.90
2019-02-10T07:46:20.695Z,33.97
2019-02-10T07:49:10.182Z,31.10
2019-02-10T07:53:12.811Z,26.90
2019-02-10T07:55:59.879Z,29.50
2019-02-10T07:59:15.725Z,30.37
2019-02-10T08:02:02.234Z,33.07
2019-02-10T08:05:05.274Z,27.37
2019-02-10T08:07:55.230Z,28.30
2019-02-10T08:10:58.860Z,29.20
2019-02-10T08:13:53.060Z,29.33
2019-02-10T08:16:55.209Z,32.60
2019-02-10T08:20:19.588Z,29.17
2019-02-10T08:23:14.269Z,27.00
2019-02-10T08:26:41.278Z,30.27
2019-02-10T08:29:32.861Z,28.10
2019-02-10T08:33:01.280Z,30.70
2019-02-10T08:36:11.151Z,28.23
2019-02-10T08:39:30.589Z,30.97
2019-02-10T08:42:45.064Z,29.03
2019-02-10T08:45:45.524Z,25.33
2019-02-10T08:49:07.753Z,30.57
2019-02-10T08:52:28.441Z,28.27
2019-02-10T08:54:54.040Z,27.00
2019-02-10T08:57:29.181Z,27.27
2019-02-10T09:00:01.655Z,26.83
2019-02-10T09:02:34.219Z,28.97
2019-02-10T09:05:12.013Z,27.23
2019-02-10T09:08:07.248Z,25.70
2019-02-10T09:10:48.166Z,29.77
2019-02-10T09:13:38.068Z,25.90
2019-02-10T09:16:09.021Z,30.07
2019-02-10T09:18:45.008Z,23.43
2019-02-10T09:21:13.746Z,30.33
2019-02-10T09:23:41.702Z,28.37
2019-02-10T09:26:12.557Z,28.80
2019-02-10T09:28:40.732Z,26.90
2019-02-10T09:31:08.898Z,27.70
2019-02-10T09:33:37.325Z,27.40
2019-02-10T09:36:06.043Z,28.07
2019-02-10T09:38:34.577Z,22.93
2019-02-10T09:41:02.635Z,29.23
2019-02-10T09:43:30.912Z,29.70
2019-02-10T09:46:00.298Z,26.37
2019-02-10T09:48:28.466Z,28.27
2019-02-10T09:50:57.389Z,27.03
2019-02-10T09:53:38.531Z,28.63
2019-02-10T09:56:06.918Z,24.37
2019-02-10T09:58:38.557Z,23.20
2019-02-10T10:01:06.568Z,25.77
2019-02-10T10:03:40.878Z,23.47
2019-02-10T10:06:08.925Z,26.17
2019-02-10T10:08:46.632Z,23.83
2019-02-10T10:11:15.642Z,27.67
2019-02-10T10:13:43.594Z,25.43
2019-02-10T10:24:08.203Z,23.63
2019-02-10T10:26:56.125Z,21.07
2019-02-10T10:29:24.629Z,24.37
2019-02-10T10:31:55.195Z,22.67
2019-02-10T10:34:24.747Z,22.90
2019-02-10T10:39:38.398Z,21.77
2019-02-10T10:42:24.675Z,21.73
2019-02-10T10:44:55.966Z,20.40
2019-02-10T10:47:39.679Z,20.37
2019-02-10T10:50:09.661Z,26.53
2019-02-10T10:52:40.732Z,22.23
2019-02-10T10:55:09.228Z,27.80
2019-02-10T10:57:51.809Z,26.87
2019-02-10T11:00:19.763Z,27.03
2019-02-10T11:02:50.033Z,24.63
2019-02-10T11:05:19.024Z,24.40
2019-02-10T11:07:48.969Z,21.97
2019-02-10T11:10:17.370Z,22.53
2019-02-10T11:12:48.653Z,24.93
2019-02-10T11:15:16.798Z,26.40
2019-02-10T11:17:44.746Z,21.77
2019-02-10T11:20:13.394Z,23.60
2019-02-10T11:22:44.782Z,23.63
2019-02-10T11:25:13.255Z,19.13
2019-02-10T11:27:53.294Z,24.10
2019-02-10T11:30:22.135Z,22.40
2019-02-10T11:33:12.029Z,22.73
2019-02-10T11:35:42.409Z,19.20
2019-02-10T11:38:12.019Z,23.10
2019-02-10T11:40:41.668Z,21.23
2019-02-10T11:43:10.728Z,20.33
2019-02-10T11:45:44.260Z,19.50
2019-02-10T11:48:13.687Z,20.40
2019-02-10T11:50:49.612Z,22.13
2019-02-10T11:53:17.661Z,20.33
2019-02-10T11:55:49.737Z,18.50
2019-02-10T11:58:36.867Z,18.20
2019-02-10T12:01:05.705Z,17.47
2019-02-10T12:03:38.661Z,17.60
2019-02-10T12:06:06.924Z,19.63
2019-02-10T12:08:40.388Z,17.37
2019-02-10T12:11:19.914Z,17.30
2019-02-10T12:13:48.233Z,18.67
2019-02-10T12:16:17.397Z,18.83
2019-02-10T12:18:45.852Z,17.43
2019-02-10T12:21:16.721Z,16.93
2019-02-10T12:23:45.965Z,21.63
2019-02-10T12:26:13.770Z,17.73
2019-02-10T12:28:44.007Z,19.13
2019-02-10T12:31:12.617Z,21.77
2019-02-10T12:33:49.070Z,21.50
2019-02-10T12:36:22.139Z,19.60
2019-02-10T12:38:51.800Z,17.93
2019-02-10T12:41:19.869Z,19.50
2019-02-10T12:43:49.445Z,22.13
2019-02-10T12:46:17.950Z,17.90
2019-02-10T12:48:49.581Z,20.43
2019-02-10T12:51:19.187Z,22.43
2019-02-10T12:53:48.400Z,21.53
2019-02-10T12:56:16.827Z,19.73
2019-02-10T12:58:50.592Z,20.17
2019-02-10T13:01:20.879Z,19.60
2019-02-10T13:03:51.446Z,20.23
2019-02-10T13:06:19.495Z,20.87
2019-02-10T13:08:47.297Z,21.80
2019-02-10T13:11:15.637Z,20.77
2019-02-10T13:13:51.477Z,20.37
2019-02-10T13:16:19.706Z,24.47
2019-02-10T13:18:47.449Z,18.43
2019-02-10T13:21:15.950Z,20.40
2019-02-10T13:23:45.605Z,20.63
2019-02-10T13:26:13.700Z,19.47
2019-02-10T13:28:42.349Z,21.63
2019-02-10T13:31:13.810Z,20.10
2019-02-10T13:33:42.813Z,21.33
2019-02-10T13:36:15.449Z,18.23
2019-02-10T13:38:43.226Z,19.53
2019-02-10T13:41:16.542Z,21.17
2019-02-10T13:43:44.632Z,21.57
2019-02-10T13:46:13.048Z,20.00
2019-02-10T13:48:40.995Z,21.13
2019-02-10T13:51:11.084Z,21.43
2019-02-10T13:56:38.632Z,22.50
2019-02-10T13:59:14.554Z,22.60
2019-02-10T14:01:42.933Z,22.27
2019-02-10T14:04:12.252Z,20.33
2019-02-10T14:06:40.174Z,24.20
2019-02-10T14:09:08.129Z,23.00
2019-02-10T14:11:41.667Z,23.60
2019-02-10T14:14:10.508Z,24.13
2019-02-10T14:16:44.808Z,26.03
2019-02-10T14:19:14.930Z,23.03
2019-02-10T14:21:43.777Z,22.63
2019-02-10T14:24:13.473Z,23.60
2019-02-10T14:26:42.990Z,23.83
2019-02-10T14:29:19.441Z,24.10
2019-02-10T14:31:48.128Z,20.57
2019-02-10T14:34:17.140Z,21.07
2019-02-10T14:36:54.407Z,23.70
2019-02-10T14:39:31.043Z,23.57
2019-02-10T14:41:59.646Z,22.00
2019-02-10T14:44:28.398Z,24.30
2019-02-10T14:46:56.339Z,24.83
2019-02-10T14:49:24.288Z,23.57
2019-02-10T14:51:52.221Z,23.33
2019-02-10T14:54:32.387Z,23.77
2019-02-10T14:57:00.972Z,25.97
2019-02-10T14:59:42.402Z,26.37
2019-02-10T15:02:10.536Z,23.03
2019-02-10T15:04:39.156Z,27.50
2019-02-10T15:07:17.593Z,25.93
2019-02-10T15:09:48.885Z,27.53
2019-02-10T15:12:19.853Z,28.80
2019-02-10T15:14:56.518Z,28.73
2019-02-10T15:17:27.820Z,30.63
2019-02-10T15:19:55.928Z,29.67
2019-02-10T15:22:37.646Z,30.30
2019-02-10T15:25:06.157Z,29.17
2019-02-10T15:27:38.530Z,38.00
2019-02-10T15:30:08.721Z,34.03
2019-02-10T15:32:36.863Z,32.60
2019-02-10T15:35:29.690Z,30.60
2019-02-10T15:38:04.976Z,34.30
2019-02-10T15:43:33.018Z,32.37
2019-02-10T15:46:02.836Z,32.40
2019-02-10T15:48:37.908Z,32.07
2019-02-10T15:51:49.985Z,34.50
2019-02-10T15:54:16.316Z,33.23
2019-02-10T15:57:12.580Z,35.23
2019-02-10T15:59:42.007Z,36.17
2019-02-10T16:03:08.510Z,37.30
2019-02-10T16:05:53.973Z,37.10
2019-02-10T16:19:10.938Z,41.13
2019-02-10T16:21:39.116Z,40.03
2019-02-10T16:24:08.336Z,42.77
2019-02-10T16:26:36.517Z,38.17
2019-02-10T16:29:37.461Z,42.93
2019-02-10T16:32:09.803Z,41.93
2019-02-10T16:34:49.660Z,43.13
2019-02-10T16:37:26.269Z,41.03
2019-02-10T16:39:54.885Z,44.20
2019-02-10T16:45:09.387Z,40.60
2019-02-10T16:47:38.136Z,39.40
2019-02-10T16:50:28.110Z,39.67
2019-02-10T16:53:02.331Z,42.50
2019-02-10T16:55:33.726Z,42.50
2019-02-10T16:58:29.778Z,38.77
2019-02-10T17:00:59.473Z,41.90
2019-02-10T17:03:46.873Z,43.43
2019-02-10T17:06:19.003Z,40.13
2019-02-10T17:09:02.121Z,45.33
2019-02-10T17:11:46.872Z,36.50
2019-02-10T17:14:15.167Z,41.73
2019-02-10T17:16:43.906Z,41.17
2019-02-10T17:20:15.211Z,40.20
2019-02-10T17:22:06.149Z,43.53
2019-02-10T17:27:10.800Z,40.83
2019-02-10T17:29:40.330Z,40.33
2019-02-10T17:34:45.950Z,42.57
2019-02-10T17:40:08.762Z,39.30
2019-02-10T17:42:47.858Z,43.73
2019-02-10T17:45:18.786Z,42.10
2019-02-10T17:47:47.501Z,40.93
2019-02-10T17:50:37.871Z,42.13
2019-02-10T17:53:07.737Z,37.77
2019-02-10T17:55:42.176Z,39.97
2019-02-10T17:58:42.588Z,43.43
2019-02-10T18:01:20.748Z,39.13
2019-02-10T18:04:03.387Z,43.17
2019-02-10T18:06:34.871Z,43.33
2019-02-10T18:09:13.516Z,39.97
2019-02-10T18:11:46.869Z,44.80
2019-02-10T18:14:42.586Z,40.77
2019-02-10T18:17:40.112Z,41.33
2019-02-10T18:20:22.065Z,39.87
2019-02-10T18:23:29.511Z,42.47
2019-02-10T18:26:25.092Z,42.93
2019-02-10T18:29:19.036Z,42.30
2019-02-10T18:32:01.980Z,41.27
2019-02-10T18:34:38.990Z,41.20
2019-02-10T18:37:38.372Z,42.60
2019-02-10T18:40:22.893Z,45.27
2019-02-10T18:43:28.850Z,42.93
2019-02-10T18:46:19.638Z,40.53
2019-02-10T18:49:13.312Z,39.33
2019-02-10T18:52:04.492Z,43.07
2019-02-10T18:54:52.495Z,44.03
2019-02-10T18:57:33.385Z,42.37
2019-02-10T19:00:19.701Z,42.17
2019-02-10T19:03:10.680Z,42.93
2019-02-10T19:05:46.653Z,44.43
2019-02-10T19:08:44.356Z,41.60
2019-02-10T19:11:30.660Z,42.40
2019-02-10T19:14:20.173Z,39.33
2019-02-10T19:17:21.326Z,41.43
2019-02-10T19:20:22.068Z,44.57
2019-02-10T19:23:17.662Z,43.27
2019-02-10T19:26:22.664Z,42.30
2019-02-10T19:29:19.607Z,43.67
2019-02-10T19:32:13.054Z,47.47
2019-02-10T19:34:57.389Z,45.33
2019-02-10T19:40:46.760Z,42.97
2019-02-10T19:43:45.519Z,43.80
2019-02-10T19:46:31.521Z,45.77
2019-02-10T19:49:36.927Z,47.10
2019-02-10T19:52:38.472Z,47.07
2019-02-10T19:55:37.355Z,44.30
2019-02-10T19:58:22.427Z,48.13
2019-02-10T20:01:12.573Z,47.83
2019-02-10T20:04:03.109Z,45.10
2019-02-10T20:06:59.531Z,47.83
2019-02-10T20:09:59.117Z,44.17
2019-02-10T20:12:40.377Z,50.43
2019-02-10T20:15:27.302Z,44.37
2019-02-10T20:18:35.454Z,47.80
2019-02-10T20:21:24.337Z,47.90
2019-02-10T20:24:10.274Z,46.97
2019-02-10T20:26:59.022Z,45.03
2019-02-10T20:29:49.767Z,48.03
2019-02-10T20:32:44.175Z,49.03
2019-02-10T20:35:34.318Z,46.43
2019-02-10T20:38:34.017Z,47.33
2019-02-10T20:41:40.029Z,52.13
2019-02-10T20:44:39.078Z,48.77
2019-02-10T20:47:25.116Z,45.87
2019-02-10T20:50:06.121Z,47.77
2019-02-10T20:53:01.135Z,45.23
2019-02-10T20:55:43.327Z,47.10
2019-02-10T20:58:56.795Z,52.57
2019-02-10T21:01:44.741Z,50.80
2019-02-10T21:04:41.056Z,50.03
2019-02-10T21:07:14.968Z,50.13
2019-02-10T21:10:01.857Z,50.40
2019-02-10T21:13:04.762Z,48.73
2019-02-10T21:15:54.907Z,47.67
2019-02-10T21:18:28.745Z,47.87
2019-02-10T21:21:21.008Z,51.50
2019-02-10T21:24:23.665Z,46.10
2019-02-10T21:27:08.356Z,51.63
2019-02-10T21:30:06.276Z,52.47
2019-02-10T21:32:47.455Z,46.70
2019-02-10T21:35:36.991Z,47.53
2019-02-10T21:41:21.316Z,50.23
2019-02-10T21:43:57.714Z,50.67
2019-02-10T21:46:53.729Z,49.97
2019-02-10T21:49:24.444Z,50.33
2019-02-10T21:51:53.508Z,51.53
2019-02-10T21:54:31.920Z,49.97
2019-02-10T21:57:13.428Z,53.80
2019-02-10T21:59:45.432Z,52.00
2019-02-10T22:02:15.861Z,47.73
2019-02-10T22:04:44.244Z,53.03
2019-02-10T22:07:14.745Z,53.63
2019-02-10T22:09:43.176Z,53.43
2019-02-10T22:12:11.010Z,47.57
2019-02-10T22:14:39.106Z,51.83
2019-02-10T22:17:07.242Z,50.20
2019-02-10T22:19:35.179Z,47.90
2019-02-10T22:22:05.884Z,52.30
2019-02-10T22:24:39.253Z,48.80
2019-02-10T22:27:13.033Z,50.83
2019-02-10T22:29:54.202Z,49.17
2019-02-10T22:32:25.859Z,53.00
2019-02-10T22:34:55.860Z,53.67
2019-02-10T22:37:23.771Z,50.47
2019-02-10T22:39:53.047Z,46.43
2019-02-10T22:42:24.223Z,49.40
2019-02-10T22:44:52.080Z,48.87
2019-02-10T22:47:25.689Z,53.03
2019-02-10T22:49:53.742Z,49.27
2019-02-10T22:52:21.708Z,51.77
2019-02-10T22:54:49.456Z,46.50
2019-02-10T22:57:17.442Z,49.83
2019-02-10T22:59:45.964Z,50.17
2019-02-10T23:02:14.545Z,47.73
2019-02-10T23:04:42.460Z,50.60
2019-02-10T23:07:12.783Z,46.00
2019-02-10T23:09:40.792Z,51.50
2019-02-10T23:12:09.564Z,47.60
2019-02-10T23:14:37.805Z,51.40
2019-02-10T23:17:05.825Z,51.00
2019-02-10T23:19:38.120Z,50.83
2019-02-10T23:22:08.784Z,53.90
2019-02-10T23:24:40.076Z,50.37
2019-02-10T23:27:10.557Z,49.40
2019-02-10T23:29:39.022Z,47.70
2019-02-10T23:32:08.661Z,52.47
2019-02-10T23:34:37.792Z,48.97
2019-02-10T23:37:05.970Z,47.83
2019-02-10T23:39:42.044Z,49.33
2019-02-10T23:42:27.143Z,52.50
2019-02-10T23:44:54.987Z,48.73
2019-02-10T23:47:23.160Z,45.97
2019-02-10T23:49:58.212Z,45.63
2019-02-10T23:52:35.102Z,51.07
2019-02-10T23:55:03.325Z,44.07
2019-02-10T23:57:38.071Z,46.77
